Meath Environmental Platform

Observations for Trim Patrick St

Time AQI Temp °C Hum % Pres Pa CO μg/m³ H₂S μg/m³ NO μg/m³ NO₂ μg/m³ O₃ μg/m³ SO₂ μg/m³ PM1 μg/m³ PM2.5 μg/m³ PM10 μg/m³
Thursday 6 August 2026
14:51 2 25.4 38 68,935 0 0 1.9 9.53 70.74 8.63 2 7.2 7.92
14:50 2 25.3 38 68,926 0 0.52 1.93 9.66 72.96 8.21 2 7.15 7.86
14:49 2 25.3 37 68,916 0 5.31 1.88 12.35 71.81 8.53 2 7.24 7.96
14:48 2 25.2 36 68,902 0 4.23 1.67 10 85.7 8.57 2 7.26 7.99
14:47 2 25.2 38 68,908 0 4.17 1.82 13.74 87.51 8.04 2 7.2 7.92
14:46 2 25.2 37 68,918 0 0.58 1.77 9.76 71.45 7.74 2 7.24 7.96
14:45 2 25.2 37 68,934 0 4.62 1.66 12.08 85.65 8.52 2 7.26 7.98
14:44 2 25.2 37 68,924 0 3.45 1.62 9.64 85.89 8.56 2 8.02 8.83
14:43 2 25.1 36 68,916 0 1.97 1.95 12.51 67.58 7.18 2 7.29 8.02
14:42 2 25.1 37 68,898 0 2.24 1.54 11.07 97.02 8.45 2 7.23 7.96
14:41 2 25 36 68,910 0 0 1.8 7.86 66.03 7.39 2.86 8.06 8.86
14:35 2 24.6 39 68,932 0 14.4 1.59 34.86 70.89 8.79 2 7.9 8.69
14:31 2 24.6 38 68,922 0 9.2 1.67 8.89 99.22 9.02 2 7.17 7.89
14:30 2 24.7 39 68,945 0 9.27 1.65 10.59 91.23 8.92 2 7.12 7.83
14:29 2 24.7 39 68,941 0 11.58 1.71 9.93 97.05 9.42 2 7.12 7.83
14:26 2 24.8 39 68,934 0 8.13 1.85 9.12 88.33 9.24 2 7.13 7.85
14:25 2 24.8 38 68,932 0 10.07 1.76 9.13 96.09 9.93 2 7.16 7.87
14:24 2 24.9 39 68,926 0 13.46 1.76 25.06 74.1 8.95 2 7.13 7.84
14:23 2 24.9 38 68,916 0 12.21 1.92 9.23 107.15 10.23 2 7.16 7.88
14:22 2 25 37 68,932 0 11.41 1.86 13.71 94.35 9.53 2 7.23 7.96